sensor_id;sensor_type;location;lat;lon;timestamp;P1;durP1;ratioP1;P2;durP2;ratioP2
8716;SDS011;4395;48.554;8.820;2022-10-16T00:01:17;4.20;;;3.00;;
8716;SDS011;4395;48.554;8.820;2022-10-16T00:03:22;4.57;;;3.20;;
8716;SDS011;4395;48.554;8.820;2022-10-16T00:05:30;2.93;;;2.47;;
8716;SDS011;4395;48.554;8.820;2022-10-16T00:07:33;5.97;;;3.47;;
8716;SDS011;4395;48.554;8.820;2022-10-16T00:09:36;4.20;;;3.40;;
8716;SDS011;4395;48.554;8.820;2022-10-16T00:11:39;5.13;;;3.43;;
8716;SDS011;4395;48.554;8.820;2022-10-16T00:13:43;6.33;;;3.53;;
8716;SDS011;4395;48.554;8.820;2022-10-16T00:15:47;5.03;;;2.03;;
8716;SDS011;4395;48.554;8.820;2022-10-16T00:17:49;1.73;;;1.57;;
8716;SDS011;4395;48.554;8.820;2022-10-16T00:19:53;1.50;;;1.40;;
8716;SDS011;4395;48.554;8.820;2022-10-16T00:21:56;4.93;;;1.63;;
8716;SDS011;4395;48.554;8.820;2022-10-16T00:24:00;2.57;;;1.87;;
8716;SDS011;4395;48.554;8.820;2022-10-16T00:26:05;3.83;;;2.40;;
8716;SDS011;4395;48.554;8.820;2022-10-16T00:28:09;2.40;;;2.20;;
8716;SDS011;4395;48.554;8.820;2022-10-16T00:30:12;2.87;;;1.70;;
8716;SDS011;4395;48.554;8.820;2022-10-16T00:32:15;2.03;;;1.93;;
8716;SDS011;4395;48.554;8.820;2022-10-16T00:34:18;3.97;;;1.93;;
8716;SDS011;4395;48.554;8.820;2022-10-16T00:36:23;6.40;;;3.30;;
8716;SDS011;4395;48.554;8.820;2022-10-16T00:38:26;6.40;;;2.73;;
8716;SDS011;4395;48.554;8.820;2022-10-16T00:40:29;5.07;;;3.30;;
8716;SDS011;4395;48.554;8.820;2022-10-16T00:42:32;4.43;;;2.70;;
8716;SDS011;4395;48.554;8.820;2022-10-16T00:44:43;3.70;;;2.60;;
8716;SDS011;4395;48.554;8.820;2022-10-16T00:46:48;4.70;;;2.03;;
8716;SDS011;4395;48.554;8.820;2022-10-16T00:48:55;2.90;;;1.60;;
8716;SDS011;4395;48.554;8.820;2022-10-16T00:51:02;3.60;;;2.10;;
8716;SDS011;4395;48.554;8.820;2022-10-16T00:53:08;3.50;;;1.97;;
8716;SDS011;4395;48.554;8.820;2022-10-16T00:55:10;2.83;;;2.20;;
8716;SDS011;4395;48.554;8.820;2022-10-16T00:57:14;1.67;;;1.57;;
8716;SDS011;4395;48.554;8.820;2022-10-16T00:59:18;6.47;;;2.20;;
8716;SDS011;4395;48.554;8.820;2022-10-16T01:01:25;2.27;;;2.07;;
8716;SDS011;4395;48.554;8.820;2022-10-16T01:03:29;3.00;;;1.50;;
8716;SDS011;4395;48.554;8.820;2022-10-16T01:05:35;2.73;;;1.27;;
8716;SDS011;4395;48.554;8.820;2022-10-16T01:07:46;2.27;;;1.70;;
8716;SDS011;4395;48.554;8.820;2022-10-16T01:10:00;2.07;;;1.53;;
8716;SDS011;4395;48.554;8.820;2022-10-16T01:12:10;2.37;;;1.43;;
8716;SDS011;4395;48.554;8.820;2022-10-16T01:14:19;3.67;;;2.63;;
8716;SDS011;4395;48.554;8.820;2022-10-16T01:16:29;1.57;;;1.47;;
8716;SDS011;4395;48.554;8.820;2022-10-16T01:18:37;1.90;;;1.70;;
8716;SDS011;4395;48.554;8.820;2022-10-16T01:20:47;4.03;;;2.00;;
8716;SDS011;4395;48.554;8.820;2022-10-16T01:22:58;1.70;;;1.60;;
8716;SDS011;4395;48.554;8.820;2022-10-16T01:25:11;2.40;;;2.20;;
8716;SDS011;4395;48.554;8.820;2022-10-16T01:27:21;4.30;;;3.07;;
8716;SDS011;4395;48.554;8.820;2022-10-16T01:29:29;2.87;;;2.67;;
8716;SDS011;4395;48.554;8.820;2022-10-16T01:31:37;1.87;;;1.60;;
8716;SDS011;4395;48.554;8.820;2022-10-16T01:33:43;2.00;;;1.90;;
8716;SDS011;4395;48.554;8.820;2022-10-16T01:35:53;1.40;;;1.30;;
8716;SDS011;4395;48.554;8.820;2022-10-16T01:38:01;2.50;;;2.30;;
8716;SDS011;4395;48.554;8.820;2022-10-16T01:40:08;2.00;;;1.70;;
8716;SDS011;4395;48.554;8.820;2022-10-16T01:42:14;2.27;;;1.70;;
8716;SDS011;4395;48.554;8.820;2022-10-16T01:44:24;3.10;;;2.00;;
8716;SDS011;4395;48.554;8.820;2022-10-16T01:46:30;1.70;;;1.60;;
8716;SDS011;4395;48.554;8.820;2022-10-16T01:48:34;2.57;;;1.70;;
8716;SDS011;4395;48.554;8.820;2022-10-16T01:50:38;2.90;;;1.70;;
8716;SDS011;4395;48.554;8.820;2022-10-16T01:52:45;2.17;;;1.53;;
8716;SDS011;4395;48.554;8.820;2022-10-16T01:54:50;1.63;;;1.30;;
8716;SDS011;4395;48.554;8.820;2022-10-16T01:56:56;1.30;;;1.10;;
8716;SDS011;4395;48.554;8.820;2022-10-16T01:59:01;3.33;;;1.23;;
8716;SDS011;4395;48.554;8.820;2022-10-16T02:01:09;1.40;;;1.30;;
8716;SDS011;4395;48.554;8.820;2022-10-16T02:03:18;1.87;;;1.30;;
8716;SDS011;4395;48.554;8.820;2022-10-16T02:05:25;3.07;;;1.30;;
8716;SDS011;4395;48.554;8.820;2022-10-16T02:07:33;2.60;;;1.13;;
8716;SDS011;4395;48.554;8.820;2022-10-16T02:09:36;3.10;;;1.23;;
8716;SDS011;4395;48.554;8.820;2022-10-16T02:11:40;3.43;;;1.50;;
8716;SDS011;4395;48.554;8.820;2022-10-16T02:13:43;3.03;;;1.63;;
8716;SDS011;4395;48.554;8.820;2022-10-16T02:15:49;3.30;;;1.53;;
8716;SDS011;4395;48.554;8.820;2022-10-16T02:17:56;4.53;;;1.73;;
8716;SDS011;4395;48.554;8.820;2022-10-16T02:19:59;2.73;;;1.50;;
8716;SDS011;4395;48.554;8.820;2022-10-16T02:22:03;5.37;;;1.60;;
8716;SDS011;4395;48.554;8.820;2022-10-16T02:24:10;5.10;;;1.70;;
8716;SDS011;4395;48.554;8.820;2022-10-16T02:26:21;2.40;;;1.40;;
8716;SDS011;4395;48.554;8.820;2022-10-16T02:28:31;2.97;;;1.67;;
8716;SDS011;4395;48.554;8.820;2022-10-16T02:30:43;3.53;;;1.50;;
8716;SDS011;4395;48.554;8.820;2022-10-16T02:32:50;3.53;;;1.33;;
8716;SDS011;4395;48.554;8.820;2022-10-16T02:34:55;1.60;;;1.50;;
8716;SDS011;4395;48.554;8.820;2022-10-16T02:37:00;2.33;;;1.60;;
8716;SDS011;4395;48.554;8.820;2022-10-16T02:39:06;5.20;;;1.47;;
8716;SDS011;4395;48.554;8.820;2022-10-16T02:41:10;1.53;;;1.30;;
8716;SDS011;4395;48.554;8.820;2022-10-16T02:43:13;1.57;;;1.47;;
8716;SDS011;4395;48.554;8.820;2022-10-16T02:45:16;2.13;;;1.20;;
8716;SDS011;4395;48.554;8.820;2022-10-16T02:47:19;3.67;;;1.90;;
8716;SDS011;4395;48.554;8.820;2022-10-16T02:49:20;2.70;;;1.47;;
8716;SDS011;4395;48.554;8.820;2022-10-16T02:51:25;4.77;;;3.20;;
8716;SDS011;4395;48.554;8.820;2022-10-16T02:53:28;4.00;;;3.63;;
8716;SDS011;4395;48.554;8.820;2022-10-16T02:55:30;3.70;;;3.10;;
8716;SDS011;4395;48.554;8.820;2022-10-16T02:57:34;3.70;;;3.40;;
8716;SDS011;4395;48.554;8.820;2022-10-16T02:59:38;4.93;;;4.50;;
8716;SDS011;4395;48.554;8.820;2022-10-16T03:01:40;4.70;;;4.30;;
8716;SDS011;4395;48.554;8.820;2022-10-16T03:03:44;2.90;;;2.30;;
8716;SDS011;4395;48.554;8.820;2022-10-16T03:05:46;1.60;;;1.50;;
8716;SDS011;4395;48.554;8.820;2022-10-16T03:07:51;2.10;;;1.60;;
8716;SDS011;4395;48.554;8.820;2022-10-16T03:09:53;5.47;;;1.77;;
8716;SDS011;4395;48.554;8.820;2022-10-16T03:11:56;2.73;;;1.67;;
8716;SDS011;4395;48.554;8.820;2022-10-16T03:13:59;2.80;;;1.60;;
8716;SDS011;4395;48.554;8.820;2022-10-16T03:16:02;2.27;;;2.00;;
8716;SDS011;4395;48.554;8.820;2022-10-16T03:18:05;2.60;;;1.63;;
8716;SDS011;4395;48.554;8.820;2022-10-16T03:20:08;2.27;;;1.47;;
8716;SDS011;4395;48.554;8.820;2022-10-16T03:22:11;3.87;;;1.80;;
8716;SDS011;4395;48.554;8.820;2022-10-16T03:24:16;3.17;;;1.60;;
8716;SDS011;4395;48.554;8.820;2022-10-16T03:26:19;1.97;;;1.77;;
8716;SDS011;4395;48.554;8.820;2022-10-16T03:28:22;3.20;;;1.70;;
8716;SDS011;4395;48.554;8.820;2022-10-16T03:30:25;3.57;;;2.90;;
8716;SDS011;4395;48.554;8.820;2022-10-16T03:32:27;5.13;;;3.50;;
8716;SDS011;4395;48.554;8.820;2022-10-16T03:34:30;8.10;;;3.67;;
8716;SDS011;4395;48.554;8.820;2022-10-16T03:36:33;3.10;;;2.33;;
8716;SDS011;4395;48.554;8.820;2022-10-16T03:38:36;2.70;;;2.00;;
8716;SDS011;4395;48.554;8.820;2022-10-16T03:40:40;1.87;;;1.73;;
8716;SDS011;4395;48.554;8.820;2022-10-16T03:42:43;3.70;;;1.73;;
8716;SDS011;4395;48.554;8.820;2022-10-16T03:44:46;1.83;;;1.60;;
8716;SDS011;4395;48.554;8.820;2022-10-16T03:46:49;2.70;;;1.30;;
8716;SDS011;4395;48.554;8.820;2022-10-16T03:48:51;2.97;;;1.47;;
8716;SDS011;4395;48.554;8.820;2022-10-16T03:50:54;2.73;;;1.90;;
8716;SDS011;4395;48.554;8.820;2022-10-16T03:52:57;4.30;;;1.47;;
8716;SDS011;4395;48.554;8.820;2022-10-16T03:55:00;2.50;;;1.47;;
8716;SDS011;4395;48.554;8.820;2022-10-16T03:57:04;2.50;;;1.23;;
8716;SDS011;4395;48.554;8.820;2022-10-16T03:59:07;2.67;;;1.57;;
8716;SDS011;4395;48.554;8.820;2022-10-16T04:01:10;3.17;;;1.70;;
8716;SDS011;4395;48.554;8.820;2022-10-16T04:03:13;3.80;;;1.40;;
8716;SDS011;4395;48.554;8.820;2022-10-16T04:05:16;2.57;;;1.63;;
8716;SDS011;4395;48.554;8.820;2022-10-16T04:07:18;5.30;;;1.57;;
8716;SDS011;4395;48.554;8.820;2022-10-16T04:09:21;1.70;;;1.57;;
8716;SDS011;4395;48.554;8.820;2022-10-16T04:11:24;3.10;;;1.77;;
8716;SDS011;4395;48.554;8.820;2022-10-16T04:13:28;2.77;;;1.67;;
8716;SDS011;4395;48.554;8.820;2022-10-16T04:15:31;3.43;;;1.67;;
8716;SDS011;4395;48.554;8.820;2022-10-16T04:17:33;1.87;;;1.70;;
8716;SDS011;4395;48.554;8.820;2022-10-16T04:19:36;2.83;;;1.80;;
8716;SDS011;4395;48.554;8.820;2022-10-16T04:21:39;2.53;;;2.03;;
8716;SDS011;4395;48.554;8.820;2022-10-16T04:23:42;3.40;;;2.37;;
8716;SDS011;4395;48.554;8.820;2022-10-16T04:25:45;3.47;;;2.00;;
8716;SDS011;4395;48.554;8.820;2022-10-16T04:27:48;6.77;;;1.93;;
8716;SDS011;4395;48.554;8.820;2022-10-16T04:29:52;1.97;;;1.67;;
8716;SDS011;4395;48.554;8.820;2022-10-16T04:31:55;4.37;;;1.70;;
8716;SDS011;4395;48.554;8.820;2022-10-16T04:33:57;3.47;;;1.67;;
8716;SDS011;4395;48.554;8.820;2022-10-16T04:36:00;3.00;;;1.53;;
8716;SDS011;4395;48.554;8.820;2022-10-16T04:38:04;2.13;;;1.50;;
8716;SDS011;4395;48.554;8.820;2022-10-16T04:40:07;6.47;;;2.10;;
8716;SDS011;4395;48.554;8.820;2022-10-16T04:42:10;1.50;;;1.40;;
8716;SDS011;4395;48.554;8.820;2022-10-16T04:44:13;1.63;;;1.53;;
8716;SDS011;4395;48.554;8.820;2022-10-16T04:46:17;4.37;;;1.67;;
8716;SDS011;4395;48.554;8.820;2022-10-16T04:48:20;1.93;;;1.50;;
8716;SDS011;4395;48.554;8.820;2022-10-16T04:50:22;1.93;;;1.40;;
8716;SDS011;4395;48.554;8.820;2022-10-16T04:52:38;3.33;;;1.70;;
8716;SDS011;4395;48.554;8.820;2022-10-16T04:54:41;2.33;;;1.30;;
8716;SDS011;4395;48.554;8.820;2022-10-16T04:56:46;3.17;;;1.60;;
8716;SDS011;4395;48.554;8.820;2022-10-16T04:58:51;3.90;;;1.93;;
8716;SDS011;4395;48.554;8.820;2022-10-16T05:00:54;1.60;;;1.47;;
8716;SDS011;4395;48.554;8.820;2022-10-16T05:02:58;2.30;;;1.93;;
8716;SDS011;4395;48.554;8.820;2022-10-16T05:05:02;3.40;;;1.63;;
8716;SDS011;4395;48.554;8.820;2022-10-16T05:07:05;1.60;;;1.50;;
8716;SDS011;4395;48.554;8.820;2022-10-16T05:09:07;3.13;;;1.40;;
8716;SDS011;4395;48.554;8.820;2022-10-16T05:11:10;3.20;;;1.50;;
8716;SDS011;4395;48.554;8.820;2022-10-16T05:13:13;2.80;;;1.60;;
8716;SDS011;4395;48.554;8.820;2022-10-16T05:15:16;1.77;;;1.67;;
8716;SDS011;4395;48.554;8.820;2022-10-16T05:17:19;1.97;;;1.63;;
8716;SDS011;4395;48.554;8.820;2022-10-16T05:19:23;1.63;;;1.53;;
8716;SDS011;4395;48.554;8.820;2022-10-16T05:21:28;4.30;;;1.30;;
8716;SDS011;4395;48.554;8.820;2022-10-16T05:23:31;3.23;;;1.90;;
8716;SDS011;4395;48.554;8.820;2022-10-16T05:25:34;5.20;;;4.07;;
8716;SDS011;4395;48.554;8.820;2022-10-16T05:27:37;14.87;;;10.73;;
8716;SDS011;4395;48.554;8.820;2022-10-16T05:29:39;13.40;;;8.60;;
8716;SDS011;4395;48.554;8.820;2022-10-16T05:31:42;19.33;;;13.20;;
8716;SDS011;4395;48.554;8.820;2022-10-16T05:33:45;9.17;;;7.57;;
8716;SDS011;4395;48.554;8.820;2022-10-16T05:35:49;6.03;;;5.13;;
8716;SDS011;4395;48.554;8.820;2022-10-16T05:37:52;3.50;;;2.90;;
8716;SDS011;4395;48.554;8.820;2022-10-16T05:39:55;3.63;;;2.17;;
8716;SDS011;4395;48.554;8.820;2022-10-16T05:41:57;2.70;;;2.20;;
8716;SDS011;4395;48.554;8.820;2022-10-16T05:44:03;3.67;;;2.20;;
8716;SDS011;4395;48.554;8.820;2022-10-16T05:46:06;3.03;;;1.57;;
8716;SDS011;4395;48.554;8.820;2022-10-16T05:48:09;2.23;;;1.57;;
8716;SDS011;4395;48.554;8.820;2022-10-16T05:50:11;2.70;;;1.60;;
8716;SDS011;4395;48.554;8.820;2022-10-16T05:52:15;3.50;;;1.77;;
8716;SDS011;4395;48.554;8.820;2022-10-16T05:54:18;2.50;;;1.97;;
8716;SDS011;4395;48.554;8.820;2022-10-16T05:56:21;2.53;;;1.97;;
8716;SDS011;4395;48.554;8.820;2022-10-16T05:58:24;2.10;;;1.60;;
8716;SDS011;4395;48.554;8.820;2022-10-16T06:00:30;1.97;;;1.63;;
8716;SDS011;4395;48.554;8.820;2022-10-16T06:02:33;2.00;;;1.80;;
8716;SDS011;4395;48.554;8.820;2022-10-16T06:04:35;2.30;;;2.10;;
8716;SDS011;4395;48.554;8.820;2022-10-16T06:06:38;3.10;;;1.83;;
8716;SDS011;4395;48.554;8.820;2022-10-16T06:08:42;2.07;;;1.77;;
8716;SDS011;4395;48.554;8.820;2022-10-16T06:10:46;2.33;;;1.83;;
8716;SDS011;4395;48.554;8.820;2022-10-16T06:12:49;4.07;;;1.70;;
8716;SDS011;4395;48.554;8.820;2022-10-16T06:14:52;2.43;;;1.40;;
8716;SDS011;4395;48.554;8.820;2022-10-16T06:16:55;3.17;;;1.70;;
8716;SDS011;4395;48.554;8.820;2022-10-16T06:18:58;1.37;;;1.20;;
8716;SDS011;4395;48.554;8.820;2022-10-16T06:21:06;3.47;;;1.50;;
8716;SDS011;4395;48.554;8.820;2022-10-16T06:23:10;5.57;;;1.30;;
8716;SDS011;4395;48.554;8.820;2022-10-16T06:25:14;1.93;;;1.50;;
8716;SDS011;4395;48.554;8.820;2022-10-16T06:27:17;2.87;;;1.33;;
8716;SDS011;4395;48.554;8.820;2022-10-16T06:29:20;2.83;;;1.60;;
8716;SDS011;4395;48.554;8.820;2022-10-16T06:31:23;3.07;;;1.77;;
8716;SDS011;4395;48.554;8.820;2022-10-16T06:33:28;7.40;;;5.07;;
8716;SDS011;4395;48.554;8.820;2022-10-16T06:35:31;5.00;;;4.00;;
8716;SDS011;4395;48.554;8.820;2022-10-16T06:37:34;3.67;;;2.13;;
8716;SDS011;4395;48.554;8.820;2022-10-16T06:39:36;3.83;;;1.77;;
8716;SDS011;4395;48.554;8.820;2022-10-16T06:41:40;1.70;;;1.60;;
8716;SDS011;4395;48.554;8.820;2022-10-16T06:43:49;2.23;;;1.70;;
8716;SDS011;4395;48.554;8.820;2022-10-16T06:45:53;4.10;;;3.30;;
8716;SDS011;4395;48.554;8.820;2022-10-16T06:47:57;7.93;;;4.57;;
8716;SDS011;4395;48.554;8.820;2022-10-16T06:49:59;17.87;;;10.93;;
8716;SDS011;4395;48.554;8.820;2022-10-16T06:52:02;4.30;;;3.00;;
8716;SDS011;4395;48.554;8.820;2022-10-16T06:54:05;2.67;;;2.47;;
8716;SDS011;4395;48.554;8.820;2022-10-16T06:56:08;2.73;;;2.00;;
8716;SDS011;4395;48.554;8.820;2022-10-16T06:58:13;4.97;;;2.50;;
8716;SDS011;4395;48.554;8.820;2022-10-16T07:00:16;4.83;;;2.30;;
8716;SDS011;4395;48.554;8.820;2022-10-16T07:02:19;3.23;;;2.90;;
8716;SDS011;4395;48.554;8.820;2022-10-16T07:04:21;2.83;;;2.57;;
8716;SDS011;4395;48.554;8.820;2022-10-16T07:06:25;4.30;;;2.00;;
8716;SDS011;4395;48.554;8.820;2022-10-16T07:08:30;3.37;;;2.60;;
8716;SDS011;4395;48.554;8.820;2022-10-16T07:10:33;4.90;;;2.50;;
8716;SDS011;4395;48.554;8.820;2022-10-16T07:12:36;3.07;;;2.70;;
8716;SDS011;4395;48.554;8.820;2022-10-16T07:14:40;6.57;;;5.23;;
8716;SDS011;4395;48.554;8.820;2022-10-16T07:16:45;2.90;;;2.03;;
8716;SDS011;4395;48.554;8.820;2022-10-16T07:18:49;2.07;;;1.87;;
8716;SDS011;4395;48.554;8.820;2022-10-16T07:21:02;1.80;;;1.70;;
8716;SDS011;4395;48.554;8.820;2022-10-16T07:23:05;2.47;;;1.50;;
8716;SDS011;4395;48.554;8.820;2022-10-16T07:25:08;2.03;;;1.30;;
8716;SDS011;4395;48.554;8.820;2022-10-16T07:27:12;2.53;;;1.77;;
8716;SDS011;4395;48.554;8.820;2022-10-16T07:29:15;2.03;;;1.77;;
8716;SDS011;4395;48.554;8.820;2022-10-16T07:31:21;4.07;;;1.67;;
8716;SDS011;4395;48.554;8.820;2022-10-16T07:33:24;2.40;;;1.90;;
8716;SDS011;4395;48.554;8.820;2022-10-16T07:35:27;2.60;;;1.70;;
8716;SDS011;4395;48.554;8.820;2022-10-16T07:37:29;1.77;;;1.60;;
8716;SDS011;4395;48.554;8.820;2022-10-16T07:39:32;4.30;;;1.47;;
8716;SDS011;4395;48.554;8.820;2022-10-16T07:41:35;2.43;;;1.70;;
8716;SDS011;4395;48.554;8.820;2022-10-16T07:43:38;2.13;;;1.93;;
8716;SDS011;4395;48.554;8.820;2022-10-16T07:45:48;2.20;;;1.80;;
8716;SDS011;4395;48.554;8.820;2022-10-16T07:47:57;3.57;;;1.83;;
8716;SDS011;4395;48.554;8.820;2022-10-16T07:50:00;3.30;;;2.20;;
8716;SDS011;4395;48.554;8.820;2022-10-16T07:52:03;3.37;;;1.70;;
8716;SDS011;4395;48.554;8.820;2022-10-16T07:54:07;3.70;;;1.73;;
8716;SDS011;4395;48.554;8.820;2022-10-16T07:56:10;2.77;;;1.80;;
8716;SDS011;4395;48.554;8.820;2022-10-16T07:58:13;1.70;;;1.60;;
8716;SDS011;4395;48.554;8.820;2022-10-16T08:00:16;3.73;;;1.67;;
8716;SDS011;4395;48.554;8.820;2022-10-16T08:02:19;3.07;;;1.57;;
8716;SDS011;4395;48.554;8.820;2022-10-16T08:04:23;2.10;;;1.37;;
8716;SDS011;4395;48.554;8.820;2022-10-16T08:06:26;12.20;;;2.50;;
8716;SDS011;4395;48.554;8.820;2022-10-16T08:08:29;8.27;;;2.20;;
8716;SDS011;4395;48.554;8.820;2022-10-16T08:10:32;8.80;;;2.10;;
8716;SDS011;4395;48.554;8.820;2022-10-16T08:12:34;3.00;;;1.60;;
8716;SDS011;4395;48.554;8.820;2022-10-16T08:14:37;1.70;;;1.60;;
8716;SDS011;4395;48.554;8.820;2022-10-16T08:16:45;1.70;;;1.60;;
8716;SDS011;4395;48.554;8.820;2022-10-16T08:18:48;5.90;;;1.77;;
8716;SDS011;4395;48.554;8.820;2022-10-16T08:20:57;3.00;;;1.70;;
8716;SDS011;4395;48.554;8.820;2022-10-16T08:23:01;2.67;;;2.40;;
8716;SDS011;4395;48.554;8.820;2022-10-16T08:25:05;2.07;;;1.53;;
8716;SDS011;4395;48.554;8.820;2022-10-16T08:27:08;3.23;;;2.10;;
8716;SDS011;4395;48.554;8.820;2022-10-16T08:29:12;1.93;;;1.50;;
8716;SDS011;4395;48.554;8.820;2022-10-16T08:31:15;2.50;;;1.57;;
8716;SDS011;4395;48.554;8.820;2022-10-16T08:33:18;2.03;;;1.43;;
8716;SDS011;4395;48.554;8.820;2022-10-16T08:35:21;4.77;;;2.07;;
8716;SDS011;4395;48.554;8.820;2022-10-16T08:37:29;3.57;;;1.60;;
8716;SDS011;4395;48.554;8.820;2022-10-16T08:39:32;5.50;;;1.80;;
8716;SDS011;4395;48.554;8.820;2022-10-16T08:44:07;2.13;;;1.73;;
8716;SDS011;4395;48.554;8.820;2022-10-16T08:46:31;5.33;;;1.90;;
8716;SDS011;4395;48.554;8.820;2022-10-16T08:48:51;4.70;;;1.60;;
8716;SDS011;4395;48.554;8.820;2022-10-16T08:50:55;2.37;;;1.50;;
8716;SDS011;4395;48.554;8.820;2022-10-16T08:52:59;2.77;;;1.77;;
8716;SDS011;4395;48.554;8.820;2022-10-16T08:55:03;4.90;;;1.70;;
8716;SDS011;4395;48.554;8.820;2022-10-16T08:57:07;2.37;;;1.60;;
8716;SDS011;4395;48.554;8.820;2022-10-16T08:59:13;3.40;;;2.23;;
8716;SDS011;4395;48.554;8.820;2022-10-16T09:01:19;3.90;;;3.47;;
8716;SDS011;4395;48.554;8.820;2022-10-16T09:03:29;5.67;;;4.03;;
8716;SDS011;4395;48.554;8.820;2022-10-16T09:05:48;3.07;;;2.70;;
8716;SDS011;4395;48.554;8.820;2022-10-16T09:08:03;4.63;;;2.90;;
8716;SDS011;4395;48.554;8.820;2022-10-16T09:10:20;3.63;;;2.80;;
8716;SDS011;4395;48.554;8.820;2022-10-16T09:12:37;1.83;;;1.50;;
8716;SDS011;4395;48.554;8.820;2022-10-16T09:14:51;1.73;;;1.47;;
8716;SDS011;4395;48.554;8.820;2022-10-16T09:17:04;3.03;;;1.63;;
8716;SDS011;4395;48.554;8.820;2022-10-16T09:19:18;2.37;;;1.53;;
8716;SDS011;4395;48.554;8.820;2022-10-16T09:21:28;3.40;;;1.70;;
8716;SDS011;4395;48.554;8.820;2022-10-16T09:23:35;3.53;;;1.60;;
8716;SDS011;4395;48.554;8.820;2022-10-16T09:25:39;4.97;;;2.10;;
8716;SDS011;4395;48.554;8.820;2022-10-16T09:27:45;4.33;;;2.00;;
8716;SDS011;4395;48.554;8.820;2022-10-16T09:29:55;4.03;;;2.23;;
8716;SDS011;4395;48.554;8.820;2022-10-16T09:32:07;3.53;;;1.80;;
8716;SDS011;4395;48.554;8.820;2022-10-16T09:34:16;4.07;;;2.10;;
8716;SDS011;4395;48.554;8.820;2022-10-16T09:36:24;8.87;;;2.93;;
8716;SDS011;4395;48.554;8.820;2022-10-16T09:38:29;2.60;;;1.90;;
8716;SDS011;4395;48.554;8.820;2022-10-16T09:40:36;2.33;;;1.90;;
8716;SDS011;4395;48.554;8.820;2022-10-16T09:42:40;2.70;;;2.50;;
8716;SDS011;4395;48.554;8.820;2022-10-16T09:44:46;2.17;;;1.60;;
8716;SDS011;4395;48.554;8.820;2022-10-16T09:47:00;1.83;;;1.73;;
8716;SDS011;4395;48.554;8.820;2022-10-16T09:49:04;2.80;;;1.53;;
8716;SDS011;4395;48.554;8.820;2022-10-16T09:51:22;3.70;;;1.90;;
8716;SDS011;4395;48.554;8.820;2022-10-16T09:53:37;2.80;;;1.73;;
8716;SDS011;4395;48.554;8.820;2022-10-16T09:55:49;2.60;;;1.67;;
8716;SDS011;4395;48.554;8.820;2022-10-16T09:57:53;2.17;;;1.80;;
8716;SDS011;4395;48.554;8.820;2022-10-16T09:59:57;1.80;;;1.53;;
8716;SDS011;4395;48.554;8.820;2022-10-16T10:02:01;3.97;;;1.60;;
8716;SDS011;4395;48.554;8.820;2022-10-16T10:04:06;2.53;;;1.67;;
8716;SDS011;4395;48.554;8.820;2022-10-16T10:06:17;3.23;;;1.70;;
8716;SDS011;4395;48.554;8.820;2022-10-16T10:08:24;2.77;;;1.47;;
8716;SDS011;4395;48.554;8.820;2022-10-16T10:10:28;4.03;;;2.00;;
8716;SDS011;4395;48.554;8.820;2022-10-16T10:12:33;6.83;;;1.93;;
8716;SDS011;4395;48.554;8.820;2022-10-16T10:14:38;3.30;;;1.60;;
8716;SDS011;4395;48.554;8.820;2022-10-16T10:16:45;1.93;;;1.40;;
8716;SDS011;4395;48.554;8.820;2022-10-16T10:18:57;2.03;;;1.50;;
8716;SDS011;4395;48.554;8.820;2022-10-16T10:21:01;2.03;;;1.80;;
8716;SDS011;4395;48.554;8.820;2022-10-16T10:23:18;3.83;;;1.40;;
8716;SDS011;4395;48.554;8.820;2022-10-16T10:25:30;4.00;;;2.47;;
8716;SDS011;4395;48.554;8.820;2022-10-16T10:27:47;5.13;;;2.23;;
8716;SDS011;4395;48.554;8.820;2022-10-16T10:29:59;3.10;;;1.70;;
8716;SDS011;4395;48.554;8.820;2022-10-16T10:32:11;2.03;;;1.87;;
8716;SDS011;4395;48.554;8.820;2022-10-16T10:34:26;1.83;;;1.50;;
8716;SDS011;4395;48.554;8.820;2022-10-16T10:36:42;1.90;;;1.70;;
8716;SDS011;4395;48.554;8.820;2022-10-16T10:38:50;1.73;;;1.60;;
8716;SDS011;4395;48.554;8.820;2022-10-16T10:40:59;1.47;;;1.37;;
8716;SDS011;4395;48.554;8.820;2022-10-16T10:43:28;2.57;;;1.67;;
8716;SDS011;4395;48.554;8.820;2022-10-16T10:45:44;2.80;;;1.50;;
8716;SDS011;4395;48.554;8.820;2022-10-16T10:47:53;2.90;;;1.60;;
8716;SDS011;4395;48.554;8.820;2022-10-16T10:50:07;2.83;;;1.53;;
8716;SDS011;4395;48.554;8.820;2022-10-16T10:52:25;4.00;;;2.47;;
8716;SDS011;4395;48.554;8.820;2022-10-16T10:54:37;4.40;;;2.30;;
8716;SDS011;4395;48.554;8.820;2022-10-16T10:56:51;3.83;;;3.40;;
8716;SDS011;4395;48.554;8.820;2022-10-16T10:59:16;2.67;;;1.77;;
8716;SDS011;4395;48.554;8.820;2022-10-16T11:01:37;19.67;;;11.50;;
8716;SDS011;4395;48.554;8.820;2022-10-16T11:03:52;7.97;;;5.43;;
8716;SDS011;4395;48.554;8.820;2022-10-16T11:06:06;3.23;;;2.93;;
8716;SDS011;4395;48.554;8.820;2022-10-16T11:08:13;3.00;;;1.90;;
8716;SDS011;4395;48.554;8.820;2022-10-16T11:10:20;3.43;;;2.17;;
8716;SDS011;4395;48.554;8.820;2022-10-16T11:12:25;2.23;;;1.60;;
8716;SDS011;4395;48.554;8.820;2022-10-16T11:14:34;3.00;;;2.70;;
8716;SDS011;4395;48.554;8.820;2022-10-16T11:16:43;4.20;;;1.67;;
8716;SDS011;4395;48.554;8.820;2022-10-16T11:18:55;2.10;;;1.80;;
8716;SDS011;4395;48.554;8.820;2022-10-16T11:21:06;3.17;;;1.70;;
8716;SDS011;4395;48.554;8.820;2022-10-16T11:23:14;8.70;;;2.80;;
8716;SDS011;4395;48.554;8.820;2022-10-16T11:25:21;4.27;;;2.40;;
8716;SDS011;4395;48.554;8.820;2022-10-16T11:27:31;3.83;;;2.20;;
8716;SDS011;4395;48.554;8.820;2022-10-16T11:29:45;6.50;;;2.30;;
8716;SDS011;4395;48.554;8.820;2022-10-16T11:31:52;3.40;;;1.97;;
8716;SDS011;4395;48.554;8.820;2022-10-16T11:34:01;3.80;;;2.27;;
8716;SDS011;4395;48.554;8.820;2022-10-16T11:36:11;3.23;;;2.13;;
8716;SDS011;4395;48.554;8.820;2022-10-16T11:38:19;3.77;;;2.43;;
8716;SDS011;4395;48.554;8.820;2022-10-16T11:40:29;4.43;;;2.00;;
8716;SDS011;4395;48.554;8.820;2022-10-16T11:42:36;4.60;;;2.27;;
8716;SDS011;4395;48.554;8.820;2022-10-16T11:44:46;3.40;;;2.63;;
8716;SDS011;4395;48.554;8.820;2022-10-16T11:46:58;4.87;;;2.80;;
8716;SDS011;4395;48.554;8.820;2022-10-16T11:49:27;2.63;;;2.00;;
8716;SDS011;4395;48.554;8.820;2022-10-16T11:51:36;3.47;;;2.13;;
8716;SDS011;4395;48.554;8.820;2022-10-16T11:53:44;2.97;;;1.90;;
8716;SDS011;4395;48.554;8.820;2022-10-16T11:55:51;3.97;;;2.17;;
8716;SDS011;4395;48.554;8.820;2022-10-16T11:57:54;4.33;;;2.13;;
8716;SDS011;4395;48.554;8.820;2022-10-16T12:00:06;4.87;;;2.37;;
8716;SDS011;4395;48.554;8.820;2022-10-16T12:02:23;2.63;;;2.00;;
8716;SDS011;4395;48.554;8.820;2022-10-16T12:04:33;1.77;;;1.67;;
8716;SDS011;4395;48.554;8.820;2022-10-16T12:06:47;13.60;;;2.07;;
8716;SDS011;4395;48.554;8.820;2022-10-16T12:08:54;2.13;;;1.87;;
8716;SDS011;4395;48.554;8.820;2022-10-16T12:11:06;6.40;;;1.63;;
8716;SDS011;4395;48.554;8.820;2022-10-16T12:13:29;1.77;;;1.63;;
8716;SDS011;4395;48.554;8.820;2022-10-16T12:15:34;3.07;;;1.93;;
8716;SDS011;4395;48.554;8.820;2022-10-16T12:17:57;2.40;;;1.60;;
8716;SDS011;4395;48.554;8.820;2022-10-16T12:20:00;4.90;;;1.87;;
8716;SDS011;4395;48.554;8.820;2022-10-16T12:22:18;2.90;;;2.30;;
8716;SDS011;4395;48.554;8.820;2022-10-16T12:24:22;6.07;;;2.80;;
8716;SDS011;4395;48.554;8.820;2022-10-16T12:26:33;2.77;;;1.80;;
8716;SDS011;4395;48.554;8.820;2022-10-16T12:28:43;2.23;;;1.80;;
8716;SDS011;4395;48.554;8.820;2022-10-16T12:30:53;4.83;;;2.40;;
8716;SDS011;4395;48.554;8.820;2022-10-16T12:32:58;2.43;;;1.90;;
8716;SDS011;4395;48.554;8.820;2022-10-16T12:35:04;3.00;;;1.60;;
8716;SDS011;4395;48.554;8.820;2022-10-16T12:37:10;1.77;;;1.67;;
8716;SDS011;4395;48.554;8.820;2022-10-16T12:39:20;2.63;;;1.70;;
8716;SDS011;4395;48.554;8.820;2022-10-16T12:41:25;1.77;;;1.67;;
8716;SDS011;4395;48.554;8.820;2022-10-16T12:43:36;2.40;;;1.80;;
8716;SDS011;4395;48.554;8.820;2022-10-16T12:45:43;2.07;;;1.60;;
8716;SDS011;4395;48.554;8.820;2022-10-16T12:47:49;2.10;;;1.60;;
8716;SDS011;4395;48.554;8.820;2022-10-16T12:49:55;3.10;;;1.43;;
8716;SDS011;4395;48.554;8.820;2022-10-16T12:51:57;1.83;;;1.43;;
8716;SDS011;4395;48.554;8.820;2022-10-16T12:54:01;2.27;;;1.60;;
8716;SDS011;4395;48.554;8.820;2022-10-16T12:56:09;3.60;;;1.57;;
8716;SDS011;4395;48.554;8.820;2022-10-16T12:58:23;1.70;;;1.60;;
8716;SDS011;4395;48.554;8.820;2022-10-16T13:00:42;2.57;;;2.37;;
8716;SDS011;4395;48.554;8.820;2022-10-16T13:02:56;3.33;;;1.70;;
8716;SDS011;4395;48.554;8.820;2022-10-16T13:05:24;2.30;;;1.80;;
8716;SDS011;4395;48.554;8.820;2022-10-16T13:07:41;2.20;;;2.00;;